createdAt,value
2018-07-19T00:01:03.257Z,5.45
2018-07-19T00:02:09.773Z,6.15
2018-07-19T00:03:14.845Z,4.65
2018-07-19T00:04:20.058Z,4.90
2018-07-19T00:05:25.212Z,5.42
2018-07-19T00:06:30.030Z,5.50
2018-07-19T00:07:35.984Z,6.97
2018-07-19T00:08:42.663Z,6.53
2018-07-19T00:09:47.464Z,6.05
2018-07-19T00:10:53.433Z,7.50
2018-07-19T00:11:59.526Z,7.97
2018-07-19T00:13:04.921Z,6.60
2018-07-19T00:14:11.066Z,6.00
2018-07-19T00:15:16.529Z,6.50
2018-07-19T00:16:22.483Z,6.62
2018-07-19T00:17:29.759Z,6.30
2018-07-19T00:18:34.408Z,6.12
2018-07-19T00:19:39.843Z,6.05
2018-07-19T00:20:48.600Z,5.72
2018-07-19T00:21:53.135Z,5.60
2018-07-19T00:22:58.900Z,5.50
2018-07-19T00:24:02.905Z,5.60
2018-07-19T00:25:08.357Z,5.15
2018-07-19T00:26:16.184Z,5.95
2018-07-19T00:27:21.370Z,6.33
2018-07-19T00:28:26.582Z,6.15
2018-07-19T00:29:31.613Z,5.50
2018-07-19T00:30:36.469Z,5.65
2018-07-19T00:31:41.303Z,5.72
2018-07-19T00:32:46.430Z,5.95
2018-07-19T00:33:51.321Z,6.03
2018-07-19T00:34:56.063Z,6.15
2018-07-19T00:36:01.893Z,6.25
2018-07-19T00:37:06.420Z,6.80
2018-07-19T00:38:11.631Z,5.90
2018-07-19T00:39:16.092Z,5.30
2018-07-19T00:40:20.563Z,5.25
2018-07-19T00:41:25.477Z,6.10
2018-07-19T00:42:31.257Z,5.67
2018-07-19T00:43:36.139Z,5.75
2018-07-19T00:44:41.665Z,5.55
2018-07-19T00:45:46.497Z,5.80
2018-07-19T00:46:51.293Z,5.60
2018-07-19T00:47:56.813Z,6.37
2018-07-19T00:49:01.559Z,5.47
2018-07-19T00:50:06.816Z,7.42
2018-07-19T00:51:12.250Z,7.58
2018-07-19T00:52:16.967Z,6.33
2018-07-19T00:53:21.970Z,6.37
2018-07-19T00:54:26.611Z,6.20
2018-07-19T00:55:33.490Z,5.17
2018-07-19T00:56:38.796Z,6.33
2018-07-19T00:57:43.776Z,5.92
2018-07-19T00:59:38.835Z,6.15
2018-07-19T01:00:43.393Z,5.75
2018-07-19T01:01:48.308Z,5.87
2018-07-19T01:02:53.888Z,6.25
2018-07-19T01:03:58.808Z,5.65
2018-07-19T01:05:03.418Z,6.22
2018-07-19T01:06:08.952Z,6.28
2018-07-19T01:07:13.427Z,8.60
2018-07-19T01:08:18.410Z,5.60
2018-07-19T01:09:23.233Z,6.10
2018-07-19T01:10:28.083Z,5.78
2018-07-19T01:11:32.368Z,5.83
2018-07-19T01:12:37.577Z,5.37
2018-07-19T01:13:43.648Z,5.37
2018-07-19T01:14:48.771Z,6.90
2018-07-19T01:15:53.840Z,5.90
2018-07-19T01:16:58.579Z,5.70
2018-07-19T01:18:03.199Z,6.03
2018-07-19T01:19:08.244Z,7.05
2018-07-19T01:20:12.929Z,6.37
2018-07-19T01:21:17.755Z,5.10
2018-07-19T01:22:22.986Z,6.22
2018-07-19T01:23:27.959Z,7.67
2018-07-19T01:24:34.226Z,6.47
2018-07-19T01:25:39.154Z,5.97
2018-07-19T01:26:44.085Z,6.12
2018-07-19T01:27:48.940Z,5.85
2018-07-19T01:28:53.943Z,6.60
2018-07-19T01:29:58.766Z,6.37
2018-07-19T01:31:03.839Z,6.62
2018-07-19T01:32:08.283Z,7.28
2018-07-19T01:33:12.931Z,7.30
2018-07-19T01:34:17.484Z,6.62
2018-07-19T01:35:22.429Z,6.62
2018-07-19T01:36:27.170Z,6.50
2018-07-19T01:37:32.095Z,6.83
2018-07-19T01:38:36.996Z,7.75
2018-07-19T01:39:41.808Z,7.95
2018-07-19T01:40:46.559Z,6.50
2018-07-19T01:42:30.919Z,7.70
2018-07-19T01:43:36.951Z,6.72
2018-07-19T01:44:43.090Z,7.60
2018-07-19T01:45:48.239Z,7.28
2018-07-19T01:48:11.805Z,7.25
2018-07-19T01:49:16.921Z,7.67
2018-07-19T01:50:21.838Z,6.97
2018-07-19T01:51:26.672Z,6.33
2018-07-19T01:52:31.236Z,7.33
2018-07-19T01:53:36.412Z,8.13
2018-07-19T01:54:41.415Z,6.83
2018-07-19T01:55:46.462Z,7.83
2018-07-19T01:56:51.771Z,7.72
2018-07-19T01:57:57.251Z,6.87
2018-07-19T01:59:02.391Z,6.90
2018-07-19T02:00:07.877Z,6.72
2018-07-19T02:01:13.191Z,6.75
2018-07-19T02:02:18.309Z,7.25
2018-07-19T02:03:23.454Z,7.67
2018-07-19T02:04:28.646Z,7.92
2018-07-19T02:05:33.941Z,8.00
2018-07-19T02:06:39.097Z,7.78
2018-07-19T02:07:44.407Z,7.55
2018-07-19T02:08:48.724Z,7.33
2018-07-19T02:09:54.091Z,8.85
2018-07-19T02:10:59.401Z,7.55
2018-07-19T02:12:04.737Z,6.72
2018-07-19T02:13:09.807Z,5.33
2018-07-19T02:14:14.979Z,6.62
2018-07-19T02:15:19.888Z,5.70
2018-07-19T02:16:24.597Z,5.97
2018-07-19T02:17:29.297Z,6.10
2018-07-19T02:18:34.455Z,6.00
2018-07-19T02:19:39.733Z,6.65
2018-07-19T02:20:44.908Z,6.50
2018-07-19T02:21:49.814Z,5.83
2018-07-19T02:22:54.794Z,5.65
2018-07-19T02:24:00.271Z,6.05
2018-07-19T02:25:04.598Z,6.03
2018-07-19T02:26:09.128Z,5.33
2018-07-19T02:27:14.375Z,5.55
2018-07-19T02:28:19.415Z,5.58
2018-07-19T02:29:25.954Z,6.17
2018-07-19T02:30:31.074Z,4.83
2018-07-19T02:31:36.841Z,5.87
2018-07-19T02:32:42.138Z,5.70
2018-07-19T02:33:46.999Z,5.50
2018-07-19T02:34:52.187Z,6.08
2018-07-19T02:35:58.053Z,6.33
2018-07-19T02:37:03.070Z,5.70
2018-07-19T02:38:08.116Z,6.65
2018-07-19T02:39:14.058Z,5.50
2018-07-19T02:40:19.071Z,5.22
2018-07-19T02:41:23.995Z,5.50
2018-07-19T02:42:29.610Z,5.85
2018-07-19T02:43:34.859Z,6.33
2018-07-19T02:44:39.950Z,6.53
2018-07-19T02:45:45.066Z,6.42
2018-07-19T02:46:49.760Z,5.90
2018-07-19T02:47:55.519Z,6.03
2018-07-19T02:49:00.402Z,5.92
2018-07-19T02:50:06.020Z,6.83
2018-07-19T02:51:11.140Z,6.45
2018-07-19T02:52:16.722Z,8.13
2018-07-19T02:53:22.123Z,7.10
2018-07-19T02:54:27.562Z,5.90
2018-07-19T02:55:32.489Z,7.65
2018-07-19T02:56:37.771Z,6.55
2018-07-19T02:57:43.203Z,6.42
2018-07-19T02:58:48.041Z,6.33
2018-07-19T02:59:53.612Z,6.22
2018-07-19T03:00:58.854Z,6.83
2018-07-19T03:02:04.185Z,6.78
2018-07-19T03:03:09.158Z,6.40
2018-07-19T03:04:15.104Z,12.78
2018-07-19T03:05:20.209Z,11.28
2018-07-19T03:06:26.056Z,9.43
2018-07-19T03:07:31.271Z,6.53
2018-07-19T03:08:36.200Z,7.75
2018-07-19T03:09:41.624Z,7.15
2018-07-19T03:10:46.647Z,7.70
2018-07-19T03:11:51.510Z,6.70
2018-07-19T03:12:56.501Z,6.10
2018-07-19T03:14:01.350Z,6.05
2018-07-19T03:15:06.430Z,7.42
2018-07-19T03:16:11.335Z,6.47
2018-07-19T03:17:16.648Z,6.00
2018-07-19T03:18:21.455Z,6.80
2018-07-19T03:19:27.091Z,5.92
2018-07-19T03:20:31.983Z,6.17
2018-07-19T03:21:37.049Z,5.60
2018-07-19T03:22:42.184Z,6.30
2018-07-19T03:23:48.041Z,6.42
2018-07-19T03:24:53.864Z,6.78
2018-07-19T03:25:58.885Z,6.90
2018-07-19T03:27:03.778Z,7.08
2018-07-19T03:28:09.115Z,5.97
2018-07-19T03:29:14.225Z,8.08
2018-07-19T03:30:19.435Z,6.40
2018-07-19T03:31:24.725Z,6.20
2018-07-19T03:32:29.546Z,6.60
2018-07-19T03:33:34.532Z,6.50
2018-07-19T03:34:39.785Z,6.55
2018-07-19T03:35:44.649Z,6.10
2018-07-19T03:36:50.042Z,6.92
2018-07-19T03:37:55.350Z,6.70
2018-07-19T03:39:01.125Z,7.22
2018-07-19T03:40:06.221Z,7.95
2018-07-19T03:41:11.656Z,7.30
2018-07-19T03:42:17.034Z,6.33
2018-07-19T03:43:23.111Z,7.42
2018-07-19T03:44:28.134Z,8.40
2018-07-19T03:45:32.969Z,9.45
2018-07-19T03:46:38.089Z,9.45
2018-07-19T03:47:44.029Z,8.30
2018-07-19T03:48:49.210Z,8.63
2018-07-19T03:49:54.448Z,6.58
2018-07-19T03:50:59.611Z,6.12
2018-07-19T03:52:04.594Z,5.75
2018-07-19T03:53:09.428Z,5.92
2018-07-19T03:54:14.680Z,5.25
2018-07-19T03:55:21.218Z,5.00
2018-07-19T03:56:26.641Z,5.50
2018-07-19T03:57:31.524Z,5.37
2018-07-19T03:58:36.680Z,6.50
2018-07-19T03:59:41.495Z,5.15
2018-07-19T04:00:46.468Z,5.45
2018-07-19T04:01:52.376Z,5.72
2018-07-19T04:02:57.547Z,6.45
2018-07-19T04:04:02.411Z,5.65
2018-07-19T04:05:07.662Z,6.87
2018-07-19T04:06:12.535Z,7.30
2018-07-19T04:07:17.782Z,8.05
2018-07-19T04:08:24.325Z,5.92
2018-07-19T04:09:29.447Z,6.50
2018-07-19T04:10:34.815Z,6.65
2018-07-19T04:11:40.215Z,6.90
2018-07-19T04:12:45.058Z,6.80
2018-07-19T04:13:50.320Z,5.70
2018-07-19T04:14:55.114Z,7.10
2018-07-19T04:16:00.972Z,5.78
2018-07-19T04:17:06.196Z,6.17
2018-07-19T04:18:11.456Z,6.33
2018-07-19T04:19:17.176Z,6.12
2018-07-19T04:20:22.612Z,5.60
2018-07-19T04:23:08.013Z,5.85
2018-07-19T04:24:13.717Z,5.90
2018-07-19T04:25:19.600Z,5.80
2018-07-19T04:26:25.491Z,6.20
2018-07-19T04:27:30.786Z,4.83
2018-07-19T04:28:36.419Z,6.00
2018-07-19T04:29:41.242Z,4.75
2018-07-19T04:30:46.077Z,5.72
2018-07-19T04:31:51.742Z,5.75
2018-07-19T04:32:56.772Z,5.33
2018-07-19T04:34:01.689Z,4.97
2018-07-19T04:35:06.585Z,5.67
2018-07-19T04:36:11.406Z,6.28
2018-07-19T04:37:17.111Z,5.42
2018-07-19T04:38:22.288Z,5.95
2018-07-19T04:39:27.253Z,6.65
2018-07-19T04:40:32.180Z,5.60
2018-07-19T04:41:37.010Z,5.70
2018-07-19T04:42:42.104Z,5.80
2018-07-19T04:43:47.866Z,5.53
2018-07-19T04:44:52.750Z,4.60
2018-07-19T04:45:57.729Z,5.97
2018-07-19T04:47:02.609Z,5.90
2018-07-19T04:48:07.769Z,6.78
2018-07-19T04:49:12.702Z,4.85
2018-07-19T04:50:17.555Z,6.35
2018-07-19T04:51:22.625Z,5.62
2018-07-19T04:52:27.683Z,7.03
2018-07-19T04:53:33.077Z,7.87
2018-07-19T04:54:37.930Z,6.80
2018-07-19T04:55:43.301Z,8.20
2018-07-19T04:56:48.708Z,6.62
2018-07-19T04:57:54.827Z,8.00
2018-07-19T04:59:00.131Z,7.22
2018-07-19T05:00:05.565Z,6.15
2018-07-19T05:01:10.490Z,7.45
2018-07-19T05:02:15.866Z,6.85
2018-07-19T05:03:20.988Z,7.00
2018-07-19T05:04:26.333Z,5.90
2018-07-19T05:05:31.100Z,5.97
2018-07-19T05:06:36.359Z,5.80
2018-07-19T05:07:42.105Z,5.60
2018-07-19T05:08:47.217Z,5.80
2018-07-19T05:09:52.856Z,5.60
2018-07-19T05:10:58.217Z,6.47
2018-07-19T05:12:03.517Z,6.60
2018-07-19T05:13:08.671Z,6.83
2018-07-19T05:14:14.669Z,5.75
2018-07-19T05:15:19.582Z,7.62
2018-07-19T05:16:24.446Z,6.80
2018-07-19T05:17:29.548Z,6.58
2018-07-19T05:18:36.812Z,7.30
2018-07-19T05:19:42.706Z,6.75
2018-07-19T05:20:48.181Z,7.78
2018-07-19T05:21:53.472Z,6.97
2018-07-19T05:22:58.437Z,8.50
2018-07-19T05:24:03.830Z,7.60
2018-07-19T05:25:09.079Z,8.38
2018-07-19T05:26:16.843Z,9.15
2018-07-19T05:27:22.048Z,8.68
2018-07-19T05:28:27.030Z,11.38
2018-07-19T05:29:33.617Z,10.30
2018-07-19T05:30:38.503Z,9.55
2018-07-19T05:31:43.440Z,7.42
2018-07-19T05:32:48.627Z,6.10
2018-07-19T05:33:53.573Z,8.38
2018-07-19T05:34:59.821Z,6.70
2018-07-19T05:36:04.988Z,7.60
2018-07-19T05:37:09.863Z,6.55
2018-07-19T05:38:16.590Z,7.75
2018-07-19T05:39:21.853Z,7.15
2018-07-19T05:40:27.172Z,7.30
2018-07-19T05:41:32.612Z,8.33
2018-07-19T05:42:37.451Z,9.23
2018-07-19T05:43:42.460Z,6.85
2018-07-19T05:44:47.880Z,6.85
2018-07-19T05:45:53.134Z,5.50
2018-07-19T05:46:58.124Z,6.62
2018-07-19T05:48:03.310Z,6.33
2018-07-19T05:49:08.239Z,6.10
2018-07-19T05:51:13.750Z,7.33
2018-07-19T05:52:18.734Z,6.92
2018-07-19T05:53:23.552Z,7.58
2018-07-19T05:54:29.896Z,7.22
2018-07-19T05:55:39.624Z,5.72
2018-07-19T05:56:45.941Z,5.47
2018-07-19T05:57:51.564Z,6.08
2018-07-19T05:58:56.859Z,4.95
2018-07-19T06:00:02.341Z,6.83
2018-07-19T06:01:07.385Z,6.22
2018-07-19T06:02:12.636Z,5.62
2018-07-19T06:03:19.699Z,6.10
2018-07-19T06:04:24.500Z,6.97
2018-07-19T06:05:31.901Z,6.17
2018-07-19T06:06:37.451Z,5.70
2018-07-19T06:07:42.746Z,5.90
2018-07-19T06:08:47.703Z,7.47
2018-07-19T06:09:52.708Z,7.00
2018-07-19T06:10:57.847Z,6.12
2018-07-19T06:12:02.899Z,7.67
2018-07-19T06:13:07.895Z,5.65
2018-07-19T06:14:12.812Z,7.05
2018-07-19T06:15:19.127Z,7.87
2018-07-19T06:16:25.812Z,6.20
2018-07-19T06:17:31.421Z,5.72
2018-07-19T06:20:07.348Z,5.60
2018-07-19T06:21:13.198Z,6.10
2018-07-19T06:22:21.137Z,6.75
2018-07-19T06:24:39.092Z,5.22
2018-07-19T06:25:43.983Z,5.75
2018-07-19T06:26:50.672Z,4.75
2018-07-19T06:27:55.656Z,4.40
2018-07-19T06:29:00.724Z,5.10
2018-07-19T06:30:07.092Z,4.92
2018-07-19T06:31:12.448Z,6.35
2018-07-19T06:32:17.413Z,5.10
2018-07-19T06:33:25.951Z,5.78
2018-07-19T06:34:33.742Z,5.03
2018-07-19T06:35:39.132Z,4.83
2018-07-19T06:36:44.191Z,5.47
2018-07-19T06:37:49.483Z,5.05
2018-07-19T06:38:55.274Z,5.45
2018-07-19T06:40:03.601Z,6.45
2018-07-19T06:41:09.414Z,4.92
2018-07-19T06:42:14.409Z,5.55
2018-07-19T06:43:19.559Z,6.80
2018-07-19T06:44:25.220Z,6.00
2018-07-19T06:45:30.366Z,5.55
2018-07-19T06:46:37.168Z,5.37
2018-07-19T06:47:51.573Z,5.08
2018-07-19T06:48:58.859Z,4.60
2018-07-19T06:50:13.041Z,6.00
2018-07-19T06:51:19.094Z,5.55
2018-07-19T06:52:27.320Z,5.08
2018-07-19T06:53:35.059Z,5.35
2018-07-19T06:54:39.914Z,5.17
2018-07-19T06:55:45.973Z,4.95
2018-07-19T06:56:51.657Z,4.33
2018-07-19T06:57:57.342Z,5.00
2018-07-19T06:59:04.651Z,6.50
2018-07-19T07:00:10.712Z,7.00
2018-07-19T07:01:16.690Z,4.95
2018-07-19T07:02:22.408Z,5.30
2018-07-19T07:03:27.209Z,4.75
2018-07-19T07:04:32.526Z,4.75
2018-07-19T07:05:38.219Z,5.53
2018-07-19T07:06:43.849Z,5.55
2018-07-19T07:07:48.668Z,7.40
2018-07-19T07:08:54.698Z,5.55
2018-07-19T07:10:00.075Z,4.47
2018-07-19T07:11:05.190Z,5.85
2018-07-19T07:12:10.094Z,5.42
2018-07-19T07:13:14.977Z,5.58
2018-07-19T07:14:20.210Z,5.92
2018-07-19T07:15:25.428Z,5.00
2018-07-19T07:16:30.643Z,4.17
2018-07-19T07:17:35.875Z,5.62
2018-07-19T07:18:41.175Z,6.60
2018-07-19T07:19:46.096Z,4.78
2018-07-19T07:20:50.910Z,4.30
2018-07-19T07:21:56.058Z,5.05
2018-07-19T07:23:01.877Z,4.33
2018-07-19T07:24:06.750Z,4.90
2018-07-19T07:25:12.235Z,5.03
2018-07-19T07:26:17.336Z,5.20
2018-07-19T07:27:22.728Z,4.50
2018-07-19T07:28:28.968Z,5.45
2018-07-19T07:29:34.767Z,4.20
2018-07-19T07:30:41.593Z,4.12
2018-07-19T07:31:47.130Z,4.87
2018-07-19T07:32:53.306Z,5.42
2018-07-19T07:33:59.880Z,5.62
2018-07-19T07:35:04.895Z,4.80
2018-07-19T07:36:10.105Z,4.30
2018-07-19T07:37:15.208Z,5.00
2018-07-19T07:38:20.794Z,5.08
2018-07-19T07:39:26.211Z,4.65
2018-07-19T07:40:31.209Z,5.03
2018-07-19T07:41:38.468Z,5.50
2018-07-19T07:42:43.292Z,4.97
2018-07-19T07:43:49.706Z,4.60
2018-07-19T07:44:54.600Z,4.28
2018-07-19T07:46:00.213Z,6.05
2018-07-19T07:47:06.296Z,6.67
2018-07-19T07:48:13.830Z,7.40
2018-07-19T07:49:20.404Z,6.67
2018-07-19T07:50:25.674Z,4.85
2018-07-19T07:51:36.200Z,5.03
2018-07-19T07:52:41.647Z,4.10
2018-07-19T07:53:47.059Z,4.60
2018-07-19T07:54:52.157Z,4.05
2018-07-19T07:55:57.195Z,4.62
2018-07-19T07:57:01.989Z,3.83
2018-07-19T07:58:06.843Z,4.85
2018-07-19T07:59:12.153Z,7.40
2018-07-19T08:00:17.103Z,4.92
2018-07-19T08:01:22.617Z,3.75
2018-07-19T08:02:28.064Z,3.95
2018-07-19T08:03:33.191Z,5.33
2018-07-19T08:04:38.219Z,4.00
2018-07-19T08:05:44.841Z,4.30
2018-07-19T08:06:50.066Z,4.42
2018-07-19T08:07:55.207Z,4.40
2018-07-19T08:09:01.879Z,4.03
2018-07-19T08:10:07.409Z,4.10
2018-07-19T08:11:12.498Z,5.20
2018-07-19T08:12:18.241Z,4.70
2018-07-19T08:13:23.108Z,4.37
2018-07-19T08:14:29.265Z,5.03
2018-07-19T08:15:34.389Z,5.55
2018-07-19T08:18:09.362Z,4.35
2018-07-19T08:19:15.045Z,4.05
2018-07-19T08:20:20.173Z,4.30
2018-07-19T08:21:25.060Z,4.85
2018-07-19T08:22:30.696Z,3.22
2018-07-19T08:23:35.962Z,3.45
2018-07-19T08:24:41.798Z,3.67
2018-07-19T08:25:54.380Z,3.10
2018-07-19T08:27:03.449Z,3.72
2018-07-19T08:28:09.548Z,3.55
2018-07-19T08:29:15.410Z,5.87
2018-07-19T08:30:29.202Z,3.80
2018-07-19T08:31:35.090Z,4.55
2018-07-19T08:32:40.206Z,3.77
2018-07-19T08:33:46.255Z,5.25
2018-07-19T08:34:52.570Z,3.90
2018-07-19T09:10:36.612Z,4.22
2018-07-19T09:11:42.106Z,3.67
2018-07-19T09:12:47.406Z,4.20
2018-07-19T09:13:55.263Z,5.33
2018-07-19T09:15:00.576Z,3.50
2018-07-19T09:16:10.936Z,3.05
2018-07-19T09:17:19.342Z,3.58
2018-07-19T09:18:26.466Z,3.60
2018-07-19T09:19:31.413Z,3.98
2018-07-19T09:20:37.713Z,4.25
2018-07-19T09:21:42.827Z,5.50
2018-07-19T09:22:48.120Z,4.80
2018-07-19T09:23:53.222Z,3.92
2018-07-19T09:25:10.227Z,3.65
2018-07-19T09:26:15.835Z,3.30
2018-07-19T09:27:22.513Z,4.33
2018-07-19T09:31:34.245Z,6.83
2018-07-19T09:32:47.737Z,3.75
2018-07-19T09:33:53.630Z,3.85
2018-07-19T09:34:59.097Z,3.37
2018-07-19T09:37:22.227Z,3.75
2018-07-19T09:38:27.525Z,3.95
2018-07-19T09:39:34.469Z,4.37
2018-07-19T09:40:40.908Z,3.98
2018-07-19T09:41:46.496Z,3.85
2018-07-19T09:42:51.728Z,4.50
2018-07-19T09:43:57.934Z,3.33
2018-07-19T09:45:03.593Z,4.00
2018-07-19T09:46:08.901Z,3.50
2018-07-19T09:47:15.212Z,5.95
2018-07-19T09:51:30.072Z,3.62
2018-07-19T09:52:35.138Z,3.33
2018-07-19T09:53:40.425Z,6.60
2018-07-19T09:54:54.386Z,5.78
2018-07-19T09:55:59.836Z,5.00
2018-07-19T09:57:04.714Z,4.20
2018-07-19T09:58:10.088Z,5.17
2018-07-19T09:59:15.110Z,4.08
2018-07-19T10:00:25.551Z,5.03
2018-07-19T10:01:30.654Z,5.83
2018-07-19T10:02:35.543Z,4.00
2018-07-19T10:03:45.426Z,3.42
2018-07-19T10:05:18.140Z,3.20
2018-07-19T10:06:24.376Z,3.45
2018-07-19T10:07:29.441Z,4.90
2018-07-19T10:08:34.265Z,3.52
2018-07-19T10:09:42.761Z,4.20
2018-07-19T10:10:54.186Z,4.45
2018-07-19T10:12:00.475Z,6.37
2018-07-19T10:13:07.208Z,4.40
2018-07-19T10:14:17.244Z,3.98
2018-07-19T10:15:25.917Z,3.42
2018-07-19T10:16:31.211Z,4.97
2018-07-19T10:17:37.341Z,4.03
2018-07-19T10:18:51.151Z,5.08
2018-07-19T10:19:58.238Z,5.40
2018-07-19T10:21:05.194Z,4.85
2018-07-19T10:22:10.793Z,4.87
2018-07-19T10:23:17.011Z,4.85
2018-07-19T10:24:22.383Z,4.20
2018-07-19T10:25:28.723Z,3.33
2018-07-19T10:26:41.357Z,3.47
2018-07-19T10:27:47.536Z,3.92
2018-07-19T10:29:04.423Z,3.12
2018-07-19T10:30:13.799Z,4.17
2018-07-19T10:31:20.324Z,3.67
2018-07-19T10:32:26.486Z,3.58
2018-07-19T10:33:33.358Z,4.35
2018-07-19T10:34:39.037Z,4.17
2018-07-19T10:35:46.707Z,5.42
2018-07-19T10:36:52.376Z,9.30
2018-07-19T10:37:57.579Z,5.30
2018-07-19T10:39:04.135Z,3.85
2018-07-19T10:40:09.637Z,3.72
2018-07-19T10:41:15.235Z,3.37
2018-07-19T10:42:24.187Z,5.15
2018-07-19T10:43:31.818Z,4.45
2018-07-19T10:44:37.597Z,6.40
2018-07-19T10:45:46.947Z,4.80
2018-07-19T10:46:51.844Z,5.12
2018-07-19T10:48:00.879Z,5.30
2018-07-19T10:49:06.098Z,4.00
2018-07-19T10:50:13.591Z,4.33
2018-07-19T10:51:18.909Z,5.25
2018-07-19T10:52:24.129Z,4.90
2018-07-19T10:53:30.355Z,4.42
2018-07-19T10:54:36.102Z,4.20
2018-07-19T10:55:41.830Z,9.80
2018-07-19T10:56:48.202Z,7.55
2018-07-19T10:57:55.106Z,7.95
2018-07-19T10:59:04.718Z,4.10
2018-07-19T11:00:12.833Z,4.08
2018-07-19T11:01:18.311Z,5.03
2018-07-19T11:02:25.145Z,4.28
2018-07-19T11:03:36.536Z,4.97
2018-07-19T11:04:48.604Z,3.62
2018-07-19T11:05:58.227Z,5.28
2018-07-19T11:07:04.707Z,4.70
2018-07-19T11:08:11.307Z,4.90
2018-07-19T11:09:16.713Z,4.05
2018-07-19T11:10:22.210Z,3.50
2018-07-19T11:11:29.349Z,3.22
2018-07-19T11:12:34.435Z,4.28
2018-07-19T11:13:40.556Z,3.72
2018-07-19T11:14:45.609Z,3.27
2018-07-19T11:15:51.129Z,4.53
2018-07-19T11:16:55.916Z,4.33
2018-07-19T11:18:01.012Z,4.60
2018-07-19T11:19:07.126Z,4.33
2018-07-19T11:20:13.258Z,4.03
2018-07-19T11:21:21.201Z,4.75
2018-07-19T11:22:27.217Z,4.10
2018-07-19T11:23:33.182Z,3.98
2018-07-19T11:24:38.405Z,4.22
2018-07-19T11:25:47.008Z,3.40
2018-07-19T11:26:52.485Z,4.12
2018-07-19T11:27:59.020Z,4.22
2018-07-19T11:29:06.149Z,3.98
2018-07-19T11:30:12.545Z,4.55
2018-07-19T11:31:18.784Z,4.42
2018-07-19T11:32:25.457Z,5.17
2018-07-19T11:33:32.124Z,4.72
2018-07-19T11:34:40.528Z,4.78
2018-07-19T11:35:47.699Z,5.33
2018-07-19T11:37:05.549Z,5.50
2018-07-19T11:38:19.512Z,6.10
2018-07-19T11:39:26.416Z,7.00
2018-07-19T11:40:32.190Z,11.10
2018-07-19T11:41:37.643Z,9.80
2018-07-19T11:42:43.906Z,11.83
2018-07-19T11:43:49.678Z,9.30
2018-07-19T11:44:55.297Z,7.05
2018-07-19T11:46:00.355Z,7.60
2018-07-19T11:47:07.742Z,5.85
2018-07-19T11:48:16.376Z,7.95
2018-07-19T11:49:21.622Z,7.37
2018-07-19T11:50:27.115Z,5.87
2018-07-19T11:51:32.504Z,7.10
2018-07-19T11:52:37.625Z,6.28
2018-07-19T11:53:43.069Z,4.85
2018-07-19T11:54:48.887Z,5.10
2018-07-19T11:55:53.870Z,5.05
2018-07-19T11:57:00.427Z,4.90
2018-07-19T11:58:06.474Z,4.33
2018-07-19T11:59:11.546Z,4.75
2018-07-19T12:00:16.444Z,4.53
2018-07-19T12:01:23.421Z,4.62
2018-07-19T12:02:29.844Z,4.35
2018-07-19T12:03:35.159Z,5.17
2018-07-19T12:04:40.391Z,4.22
2018-07-19T12:05:46.463Z,15.60
2018-07-19T12:06:51.392Z,10.45
2018-07-19T12:07:56.815Z,5.22
2018-07-19T12:09:01.986Z,5.00
2018-07-19T12:10:07.684Z,5.53
2018-07-19T12:11:13.194Z,4.35
2018-07-19T12:12:18.034Z,4.67
2018-07-19T12:13:25.194Z,5.42
2018-07-19T12:14:30.813Z,4.53
2018-07-19T12:15:35.899Z,4.20
2018-07-19T12:16:43.954Z,6.53
2018-07-19T12:17:50.070Z,6.45
2018-07-19T12:18:59.311Z,5.62
2018-07-19T12:20:04.258Z,4.60
2018-07-19T12:21:09.692Z,5.75
2018-07-19T12:22:15.148Z,4.40
2018-07-19T12:23:21.506Z,4.95
2018-07-19T12:24:26.380Z,4.75
2018-07-19T12:25:31.402Z,4.08
2018-07-19T12:26:39.736Z,3.98
2018-07-19T12:27:45.643Z,3.50
2018-07-19T12:28:53.404Z,3.90
2018-07-19T12:29:59.091Z,3.72
2018-07-19T12:31:06.529Z,3.98
2018-07-19T12:32:12.013Z,4.45
2018-07-19T12:33:17.194Z,3.90
2018-07-19T12:34:22.355Z,4.90
2018-07-19T12:35:28.889Z,4.33
2018-07-19T12:36:34.131Z,4.45
2018-07-19T12:37:40.439Z,4.58
2018-07-19T12:38:45.711Z,4.00
2018-07-19T12:39:51.525Z,3.95
2018-07-19T12:40:58.529Z,4.20
2018-07-19T12:42:03.700Z,4.03
2018-07-19T12:43:08.760Z,4.17
2018-07-19T12:44:15.257Z,4.65
2018-07-19T12:45:22.070Z,4.08
2018-07-19T12:46:26.907Z,4.55
2018-07-19T12:47:31.857Z,4.17
2018-07-19T12:48:38.259Z,4.33
2018-07-19T12:49:43.228Z,4.37
2018-07-19T12:50:49.291Z,4.28
2018-07-19T12:51:54.855Z,4.80
2018-07-19T12:53:01.694Z,4.03
2018-07-19T12:54:07.765Z,3.95
2018-07-19T12:55:13.197Z,4.85
2018-07-19T12:56:18.006Z,4.17
2018-07-19T12:57:23.580Z,5.12
2018-07-19T12:58:28.638Z,4.60
2018-07-19T12:59:36.386Z,4.55
2018-07-19T13:00:42.574Z,4.00
2018-07-19T13:01:48.803Z,3.83
2018-07-19T13:02:54.099Z,4.20
2018-07-19T13:03:59.208Z,5.12
2018-07-19T13:05:04.129Z,4.40
2018-07-19T13:06:09.129Z,4.03
2018-07-19T13:07:14.114Z,4.37
2018-07-19T13:08:20.434Z,3.92
2018-07-19T13:09:26.343Z,4.47
2018-07-19T13:10:32.050Z,4.50
2018-07-19T13:11:37.224Z,4.15
2018-07-19T13:12:42.309Z,4.85
2018-07-19T13:13:47.598Z,4.17
2018-07-19T13:14:52.946Z,3.72
2018-07-19T13:15:58.167Z,4.53
2018-07-19T13:17:03.406Z,4.20
2018-07-19T13:18:08.420Z,4.70
2018-07-19T13:19:15.596Z,4.03
2018-07-19T13:20:21.511Z,4.03
2018-07-19T13:21:27.315Z,4.10
2018-07-19T13:22:33.422Z,3.58
2018-07-19T13:23:39.104Z,4.85
2018-07-19T13:24:44.743Z,4.47
2018-07-19T13:25:52.825Z,3.77
2018-07-19T13:26:59.094Z,4.00
2018-07-19T13:28:04.240Z,4.78
2018-07-19T13:29:09.624Z,4.42
2018-07-19T13:30:14.467Z,4.87
2018-07-19T13:31:20.094Z,3.40
2018-07-19T13:32:25.506Z,3.98
2018-07-19T13:33:31.099Z,4.80
2018-07-19T13:34:38.159Z,3.90
2018-07-19T13:35:46.677Z,4.80
2018-07-19T13:36:53.841Z,4.65
2018-07-19T13:37:59.728Z,4.05
2018-07-19T13:39:07.248Z,3.50
2018-07-19T13:40:12.172Z,3.80
2018-07-19T13:41:17.269Z,4.75
2018-07-19T13:42:23.195Z,4.40
2018-07-19T13:43:28.214Z,4.20
2018-07-19T13:44:33.233Z,4.20
2018-07-19T13:45:38.064Z,4.37
2018-07-19T13:46:46.718Z,4.30
2018-07-19T13:47:52.124Z,4.53
2018-07-19T13:48:57.741Z,4.42
2018-07-19T13:50:04.713Z,5.03
2018-07-19T13:51:09.588Z,4.00
2018-07-19T13:52:15.272Z,4.15
2018-07-19T13:53:41.313Z,4.90
2018-07-19T13:54:48.700Z,4.78
2018-07-19T13:55:55.956Z,4.40
2018-07-19T13:57:01.810Z,3.70
2018-07-19T13:58:06.629Z,5.60
2018-07-19T13:59:12.499Z,3.92
2018-07-19T14:00:17.885Z,4.87
2018-07-19T14:01:23.187Z,4.05
2018-07-19T14:02:28.284Z,4.62
2018-07-19T14:03:33.462Z,4.62
2018-07-19T14:04:39.995Z,4.40
2018-07-19T14:05:46.497Z,4.60
2018-07-19T14:06:52.727Z,5.00
2018-07-19T14:07:58.533Z,5.40
2018-07-19T14:09:05.754Z,5.78
2018-07-19T14:10:12.276Z,6.08
2018-07-19T14:11:17.849Z,11.48
2018-07-19T14:12:22.768Z,4.55
2018-07-19T14:13:29.175Z,5.03
2018-07-19T14:14:34.143Z,4.92
2018-07-19T14:15:40.396Z,4.62
2018-07-19T14:16:45.455Z,4.80
2018-07-19T14:17:50.274Z,6.20
2018-07-19T14:18:55.108Z,7.15
2018-07-19T14:20:00.218Z,5.72
2018-07-19T14:21:06.079Z,4.05
2018-07-19T14:22:12.207Z,9.53
2018-07-19T14:23:19.546Z,5.50
2018-07-19T14:24:25.814Z,7.35
2018-07-19T14:25:33.049Z,5.67
2018-07-19T14:26:39.415Z,7.72
2018-07-19T14:27:46.218Z,5.45
2018-07-19T14:28:52.089Z,4.90
2018-07-19T14:29:58.056Z,6.08
2018-07-19T14:31:03.623Z,5.03
2018-07-19T14:32:09.887Z,5.47
2018-07-19T14:33:21.728Z,4.62
2018-07-19T14:34:26.944Z,5.33
2018-07-19T14:35:32.304Z,4.33
2018-07-19T14:36:37.264Z,5.78
2018-07-19T14:37:42.422Z,5.12
2018-07-19T14:38:50.663Z,5.05
2018-07-19T14:39:55.932Z,6.35
2018-07-19T14:41:01.361Z,7.65
2018-07-19T14:42:06.904Z,4.60
2018-07-19T14:43:12.440Z,4.78
2018-07-19T14:44:20.393Z,5.35
2018-07-19T14:45:26.647Z,4.45
2018-07-19T14:46:32.085Z,4.20
2018-07-19T14:47:39.214Z,6.47
2018-07-19T14:48:46.073Z,4.90
2018-07-19T14:49:53.202Z,5.28
2018-07-19T14:50:58.580Z,4.83
2018-07-19T14:52:04.580Z,6.05
2018-07-19T14:53:09.846Z,7.03
2018-07-19T14:54:15.414Z,7.00
2018-07-19T14:55:20.687Z,6.67
2018-07-19T14:56:26.075Z,8.83
2018-07-19T14:57:32.396Z,7.45
2018-07-19T14:58:37.828Z,6.40
2018-07-19T14:59:43.211Z,8.28
2018-07-19T15:00:49.196Z,13.10
2018-07-19T15:01:54.094Z,6.95
2018-07-19T15:02:59.778Z,5.20
2018-07-19T15:04:05.151Z,5.22
2018-07-19T15:05:09.997Z,7.65
2018-07-19T15:06:16.102Z,6.85
2018-07-19T15:07:23.787Z,5.90
2018-07-19T15:08:29.839Z,4.80
2018-07-19T15:09:35.225Z,5.60
2018-07-19T15:10:40.069Z,6.87
2018-07-19T15:11:46.500Z,6.90
2018-07-19T15:12:52.209Z,5.25
2018-07-19T15:14:00.200Z,7.10
2018-07-19T15:15:06.921Z,5.17
2018-07-19T15:16:12.343Z,4.35
2018-07-19T15:17:17.628Z,5.00
2018-07-19T15:18:23.357Z,6.30
2018-07-19T15:19:30.075Z,5.28
2018-07-19T15:20:35.031Z,4.92
2018-07-19T15:21:41.102Z,5.30
2018-07-19T15:22:46.219Z,4.75
2018-07-19T15:23:51.255Z,4.97
2018-07-19T15:24:56.104Z,3.87
2018-07-19T15:26:01.218Z,4.25
2018-07-19T15:27:11.848Z,5.72
2018-07-19T15:28:19.079Z,5.37
2018-07-19T15:29:25.045Z,4.60